Parkers Prairie, MN (56361)

3:46 AM CDT on July 11, 2014 (GMT -0500)
Gardonville (KMNBRAND2) Elev 1411 ft | 45.96 °N, 95.60 °W | Change Station

Current weather conditions updated 2 seconds ago

Mostly Cloudy
Mostly Cloudy
71.3 °F
Feels Like 70 °F
N
14.0
Wind Variable Wind from SW
Gusts 31.0 mph

Today is forecast to be Warmer than yesterday.

Today
High -- | Low -- °F
--% Chance of Precip.
Yesterday
High -- | Low -- °F
Precip. -- in
5:41 AM 9:12 PM
Waxing Gibbous, 98% visible
Pressure 29.83 in
Visibility 10.0 miles
Clouds Scattered Clouds 4700 ft
Mostly Cloudy 5500 ft
Mostly Cloudy 7000 ft
Heat Index 70 °F
Dew Point 66 °F
Humidity 84%
Rainfall 0.32 in
Snow Depth Not available.
UV 0 out of 12
Pollen 4.10 out of 12
Air Quality Not available.
Flu Activity Sporadic
METAR KAXN 110753Z AUTO 20017G25KT 10SM SCT047 BKN055 BKN070 22/18 A2986 RMK AO2 PK WND 20027/0734 LTG DSNT NW-E SLP102 T02220183

More Conditions Fewer Conditions

Pressure 29.83 in
Visibility 10.0 miles
Clouds Scattered Clouds 4700 ft
Mostly Cloudy 5500 ft
Mostly Cloudy 7000 ft
Heat Index 70 °F
Dew Point 66 °F
Humidity 84%
Rainfall 0.32 in
Snow Depth Not available.
UV 0 out of 12
Pollen 4.10 out of 12
Air Quality Not available.
Flu Activity Sporadic
METAR KAXN 110753Z AUTO 20017G25KT 10SM SCT047 BKN055 BKN070 22/18 A2986 RMK AO2 PK WND 20027/0734 LTG DSNT NW-E SLP102 T02220183

More Conditions Fewer Conditions

10-Day Weather Forecast

Almanac

Astronomy

Jul. 11, 2014 Rise Set
Actual Time 5:41 AM CDT 9:12 PM CDT
Civil Twilight 5:03 AM CDT 9:49 PM CDT
Nautical Twilight 4:13 AM CDT 10:39 PM CDT
Astronomical Twilight 3:08 AM CDT 11:44 PM CDT
Moon 8:18 PM CDT 4:58 AM CDT
Length of Visible Light 16h 46m
Length of Day
15h 30m
Tomorrow will be 1m 32s shorter.
Waxing Gibbous, 98% of the Moon is Illuminated
Today
Waxing Gibbous
Jul 12
Full
Jul 18
Last Quarter
Jul 26
New
Aug 3
First Quarter

Today's Extremes

State Highs State Lows

Community

WunderPhotos

Upload Photos

1,732,402 photos uploaded!

WunderBlogs® & News

Nearby

Snow Depth

Station Depth Elevation
No new snow has been reported.

Earthquake Activity

City Distance Mag. Time & Date
No recent earthquake activity has been reported nearby.
Minimum magnitude displayed is 2.5.

Coastal Water Temperatures

Place Temperature
No Stations Reporting

Nearby Weather Stations

Station Location Temp. Heat Index Dew Point Humidity Wind Precip. Elev Updated Type
Gardonville, Brandon, MN 71.3 °F 70 °F 66 °F 84% SW  at  14.0 mph 0.06 in / hr 1411 ft 3:46 AM CDT Rapid Fire

Show More Stations Show Fewer Stations